sensor_id;sensor_type;location;lat;lon;timestamp;temperature;humidity
31525;DHT22;18134;52.298;8.888;2023-02-04T00:00:16;6.50;99.90
31525;DHT22;18134;52.298;8.888;2023-02-04T00:02:45;6.30;99.90
31525;DHT22;18134;52.298;8.888;2023-02-04T00:05:10;6.30;99.90
31525;DHT22;18134;52.298;8.888;2023-02-04T00:07:36;6.20;99.90
31525;DHT22;18134;52.298;8.888;2023-02-04T00:10:02;6.30;99.90
31525;DHT22;18134;52.298;8.888;2023-02-04T00:12:28;6.30;99.90
31525;DHT22;18134;52.298;8.888;2023-02-04T00:14:56;6.30;99.90
31525;DHT22;18134;52.298;8.888;2023-02-04T00:17:22;6.30;99.90
31525;DHT22;18134;52.298;8.888;2023-02-04T00:19:48;6.30;99.90
31525;DHT22;18134;52.298;8.888;2023-02-04T00:22:15;6.20;99.90
31525;DHT22;18134;52.298;8.888;2023-02-04T00:24:41;6.30;99.90
31525;DHT22;18134;52.298;8.888;2023-02-04T00:27:12;6.30;99.90
31525;DHT22;18134;52.298;8.888;2023-02-04T00:29:38;6.30;99.90
31525;DHT22;18134;52.298;8.888;2023-02-04T00:32:04;6.30;99.90
31525;DHT22;18134;52.298;8.888;2023-02-04T00:34:29;6.30;99.90
31525;DHT22;18134;52.298;8.888;2023-02-04T00:36:57;6.20;99.90
31525;DHT22;18134;52.298;8.888;2023-02-04T00:39:25;6.20;99.90
31525;DHT22;18134;52.298;8.888;2023-02-04T00:41:53;6.20;99.90
31525;DHT22;18134;52.298;8.888;2023-02-04T00:44:21;6.20;99.90
31525;DHT22;18134;52.298;8.888;2023-02-04T00:46:46;6.20;99.90
31525;DHT22;18134;52.298;8.888;2023-02-04T00:49:13;6.30;99.90
31525;DHT22;18134;52.298;8.888;2023-02-04T00:51:39;6.30;99.90
31525;DHT22;18134;52.298;8.888;2023-02-04T00:54:05;6.30;99.90
31525;DHT22;18134;52.298;8.888;2023-02-04T00:56:31;6.30;99.90
31525;DHT22;18134;52.298;8.888;2023-02-04T00:58:56;6.30;99.90
31525;DHT22;18134;52.298;8.888;2023-02-04T01:01:24;6.30;99.90
31525;DHT22;18134;52.298;8.888;2023-02-04T01:03:50;6.40;99.90
31525;DHT22;18134;52.298;8.888;2023-02-04T01:06:15;6.30;99.90
31525;DHT22;18134;52.298;8.888;2023-02-04T01:08:42;6.30;99.90
31525;DHT22;18134;52.298;8.888;2023-02-04T01:11:10;6.20;99.90
31525;DHT22;18134;52.298;8.888;2023-02-04T01:13:36;6.10;99.90
31525;DHT22;18134;52.298;8.888;2023-02-04T01:16:01;6.10;99.90
31525;DHT22;18134;52.298;8.888;2023-02-04T01:18:27;6.10;99.90
31525;DHT22;18134;52.298;8.888;2023-02-04T01:20:52;6.00;99.90
31525;DHT22;18134;52.298;8.888;2023-02-04T01:23:18;6.00;99.90
31525;DHT22;18134;52.298;8.888;2023-02-04T01:25:43;5.90;99.90
31525;DHT22;18134;52.298;8.888;2023-02-04T01:28:09;5.90;99.90
31525;DHT22;18134;52.298;8.888;2023-02-04T01:30:37;5.80;99.90
31525;DHT22;18134;52.298;8.888;2023-02-04T01:33:03;5.80;99.90
31525;DHT22;18134;52.298;8.888;2023-02-04T01:35:28;5.80;99.90
31525;DHT22;18134;52.298;8.888;2023-02-04T01:37:54;5.80;99.90
31525;DHT22;18134;52.298;8.888;2023-02-04T01:40:19;5.80;99.90
31525;DHT22;18134;52.298;8.888;2023-02-04T01:42:45;5.80;99.90
31525;DHT22;18134;52.298;8.888;2023-02-04T01:45:10;5.70;99.90
31525;DHT22;18134;52.298;8.888;2023-02-04T01:47:36;5.10;99.90
31525;DHT22;18134;52.298;8.888;2023-02-04T01:50:04;5.60;99.90
31525;DHT22;18134;52.298;8.888;2023-02-04T01:52:34;5.60;99.90
31525;DHT22;18134;52.298;8.888;2023-02-04T01:55:01;5.50;99.90
31525;DHT22;18134;52.298;8.888;2023-02-04T01:57:26;5.40;99.90
31525;DHT22;18134;52.298;8.888;2023-02-04T01:59:53;5.50;99.90
31525;DHT22;18134;52.298;8.888;2023-02-04T02:05:08;5.50;99.90
31525;DHT22;18134;52.298;8.888;2023-02-04T02:07:34;5.40;99.90
31525;DHT22;18134;52.298;8.888;2023-02-04T02:10:00;5.40;99.90
31525;DHT22;18134;52.298;8.888;2023-02-04T02:12:26;5.20;99.90
31525;DHT22;18134;52.298;8.888;2023-02-04T02:14:52;5.50;99.90
31525;DHT22;18134;52.298;8.888;2023-02-04T02:17:17;5.30;99.90
31525;DHT22;18134;52.298;8.888;2023-02-04T02:19:43;5.10;99.90
31525;DHT22;18134;52.298;8.888;2023-02-04T02:24:53;5.30;99.90
31525;DHT22;18134;52.298;8.888;2023-02-04T02:27:18;5.30;99.90
31525;DHT22;18134;52.298;8.888;2023-02-04T02:29:44;5.20;99.90
31525;DHT22;18134;52.298;8.888;2023-02-04T02:32:10;5.20;99.90
31525;DHT22;18134;52.298;8.888;2023-02-04T02:34:42;5.10;99.90
31525;DHT22;18134;52.298;8.888;2023-02-04T02:37:07;5.10;99.90
31525;DHT22;18134;52.298;8.888;2023-02-04T02:39:34;5.10;99.90
31525;DHT22;18134;52.298;8.888;2023-02-04T02:42:00;5.10;99.90
31525;DHT22;18134;52.298;8.888;2023-02-04T02:44:25;5.10;99.90
31525;DHT22;18134;52.298;8.888;2023-02-04T02:46:54;5.10;99.90
31525;DHT22;18134;52.298;8.888;2023-02-04T02:49:20;5.10;99.90
31525;DHT22;18134;52.298;8.888;2023-02-04T02:51:46;5.00;99.90
31525;DHT22;18134;52.298;8.888;2023-02-04T02:54:20;5.00;99.90
31525;DHT22;18134;52.298;8.888;2023-02-04T02:56:46;5.00;99.90
31525;DHT22;18134;52.298;8.888;2023-02-04T02:59:13;4.90;99.90
31525;DHT22;18134;52.298;8.888;2023-02-04T03:01:40;5.20;99.90
31525;DHT22;18134;52.298;8.888;2023-02-04T03:04:07;4.90;99.90
31525;DHT22;18134;52.298;8.888;2023-02-04T03:06:33;4.80;99.90
31525;DHT22;18134;52.298;8.888;2023-02-04T03:08:58;4.80;99.90
31525;DHT22;18134;52.298;8.888;2023-02-04T03:11:24;4.80;99.90
31525;DHT22;18134;52.298;8.888;2023-02-04T03:13:56;4.80;99.90
31525;DHT22;18134;52.298;8.888;2023-02-04T03:16:26;4.80;99.90
31525;DHT22;18134;52.298;8.888;2023-02-04T03:18:51;4.80;99.90
31525;DHT22;18134;52.298;8.888;2023-02-04T03:21:17;4.80;99.90
31525;DHT22;18134;52.298;8.888;2023-02-04T03:23:43;4.80;99.90
31525;DHT22;18134;52.298;8.888;2023-02-04T03:26:08;4.80;99.90
31525;DHT22;18134;52.298;8.888;2023-02-04T03:28:39;4.70;99.90
31525;DHT22;18134;52.298;8.888;2023-02-04T03:31:05;4.70;99.90
31525;DHT22;18134;52.298;8.888;2023-02-04T03:33:30;4.80;99.90
31525;DHT22;18134;52.298;8.888;2023-02-04T03:35:56;4.80;99.90
31525;DHT22;18134;52.298;8.888;2023-02-04T03:38:22;4.70;99.90
31525;DHT22;18134;52.298;8.888;2023-02-04T03:40:48;4.70;99.90
31525;DHT22;18134;52.298;8.888;2023-02-04T03:43:13;4.80;99.90
31525;DHT22;18134;52.298;8.888;2023-02-04T03:45:46;4.80;99.90
31525;DHT22;18134;52.298;8.888;2023-02-04T03:48:16;4.80;99.90
31525;DHT22;18134;52.298;8.888;2023-02-04T03:50:42;4.80;99.90
31525;DHT22;18134;52.298;8.888;2023-02-04T03:53:08;4.80;99.90
31525;DHT22;18134;52.298;8.888;2023-02-04T03:55:34;4.70;99.90
31525;DHT22;18134;52.298;8.888;2023-02-04T03:58:00;5.40;99.90
31525;DHT22;18134;52.298;8.888;2023-02-04T04:00:26;4.60;99.90
31525;DHT22;18134;52.298;8.888;2023-02-04T04:02:53;4.60;99.90
31525;DHT22;18134;52.298;8.888;2023-02-04T04:05:19;4.60;99.90
31525;DHT22;18134;52.298;8.888;2023-02-04T04:07:45;4.50;99.90
31525;DHT22;18134;52.298;8.888;2023-02-04T04:10:10;4.50;99.90
31525;DHT22;18134;52.298;8.888;2023-02-04T04:12:36;4.40;99.90
31525;DHT22;18134;52.298;8.888;2023-02-04T04:15:02;4.40;99.90
31525;DHT22;18134;52.298;8.888;2023-02-04T04:17:28;4.40;99.90
31525;DHT22;18134;52.298;8.888;2023-02-04T04:19:53;4.40;99.90
31525;DHT22;18134;52.298;8.888;2023-02-04T04:22:19;4.50;99.90
31525;DHT22;18134;52.298;8.888;2023-02-04T04:24:44;4.50;99.90
31525;DHT22;18134;52.298;8.888;2023-02-04T04:27:10;4.50;99.90
31525;DHT22;18134;52.298;8.888;2023-02-04T04:29:35;4.50;99.90
31525;DHT22;18134;52.298;8.888;2023-02-04T04:32:01;4.40;99.90
31525;DHT22;18134;52.298;8.888;2023-02-04T04:34:26;4.40;99.90
31525;DHT22;18134;52.298;8.888;2023-02-04T04:36:52;4.80;99.90
31525;DHT22;18134;52.298;8.888;2023-02-04T04:39:19;4.40;99.90
31525;DHT22;18134;52.298;8.888;2023-02-04T04:41:46;4.40;99.90
31525;DHT22;18134;52.298;8.888;2023-02-04T04:44:11;4.40;99.90
31525;DHT22;18134;52.298;8.888;2023-02-04T04:46:37;4.30;99.90
31525;DHT22;18134;52.298;8.888;2023-02-04T04:49:07;4.40;99.90
31525;DHT22;18134;52.298;8.888;2023-02-04T04:51:32;4.30;99.90
31525;DHT22;18134;52.298;8.888;2023-02-04T04:53:58;4.30;99.90
31525;DHT22;18134;52.298;8.888;2023-02-04T04:56:24;4.20;99.90
31525;DHT22;18134;52.298;8.888;2023-02-04T04:58:49;4.20;99.90
31525;DHT22;18134;52.298;8.888;2023-02-04T05:01:15;4.10;99.90
31525;DHT22;18134;52.298;8.888;2023-02-04T05:03:41;4.00;99.90
31525;DHT22;18134;52.298;8.888;2023-02-04T05:06:06;3.90;99.90
31525;DHT22;18134;52.298;8.888;2023-02-04T05:08:33;4.20;99.90
31525;DHT22;18134;52.298;8.888;2023-02-04T05:11:00;3.80;99.90
31525;DHT22;18134;52.298;8.888;2023-02-04T05:13:28;3.80;99.90
31525;DHT22;18134;52.298;8.888;2023-02-04T05:15:54;3.80;99.90
31525;DHT22;18134;52.298;8.888;2023-02-04T05:18:22;3.70;99.90
31525;DHT22;18134;52.298;8.888;2023-02-04T05:20:47;4.00;99.90
31525;DHT22;18134;52.298;8.888;2023-02-04T05:23:13;3.70;99.90
31525;DHT22;18134;52.298;8.888;2023-02-04T05:25:39;3.70;99.90
31525;DHT22;18134;52.298;8.888;2023-02-04T05:28:04;3.70;99.90
31525;DHT22;18134;52.298;8.888;2023-02-04T05:30:30;3.20;99.90
31525;DHT22;18134;52.298;8.888;2023-02-04T05:32:58;3.60;99.90
31525;DHT22;18134;52.298;8.888;2023-02-04T05:35:23;3.60;99.90
31525;DHT22;18134;52.298;8.888;2023-02-04T05:37:49;3.60;99.90
31525;DHT22;18134;52.298;8.888;2023-02-04T05:40:14;3.50;99.90
31525;DHT22;18134;52.298;8.888;2023-02-04T05:42:40;3.40;99.90
31525;DHT22;18134;52.298;8.888;2023-02-04T05:45:06;3.40;99.90
31525;DHT22;18134;52.298;8.888;2023-02-04T05:47:32;3.40;99.90
31525;DHT22;18134;52.298;8.888;2023-02-04T05:49:57;3.40;99.90
31525;DHT22;18134;52.298;8.888;2023-02-04T05:52:23;3.40;99.90
31525;DHT22;18134;52.298;8.888;2023-02-04T05:54:51;3.40;99.90
31525;DHT22;18134;52.298;8.888;2023-02-04T05:57:16;3.40;99.90
31525;DHT22;18134;52.298;8.888;2023-02-04T05:59:42;3.40;99.90
31525;DHT22;18134;52.298;8.888;2023-02-04T06:02:07;3.40;99.90
31525;DHT22;18134;52.298;8.888;2023-02-04T06:04:35;3.50;99.90
31525;DHT22;18134;52.298;8.888;2023-02-04T06:07:03;3.40;99.90
31525;DHT22;18134;52.298;8.888;2023-02-04T06:09:29;4.20;99.90
31525;DHT22;18134;52.298;8.888;2023-02-04T06:11:54;3.30;99.90
31525;DHT22;18134;52.298;8.888;2023-02-04T06:14:20;3.30;99.90
31525;DHT22;18134;52.298;8.888;2023-02-04T06:16:47;3.30;99.90
31525;DHT22;18134;52.298;8.888;2023-02-04T06:19:13;3.60;99.90
31525;DHT22;18134;52.298;8.888;2023-02-04T06:21:41;3.10;99.90
31525;DHT22;18134;52.298;8.888;2023-02-04T06:24:06;3.10;99.90
31525;DHT22;18134;52.298;8.888;2023-02-04T06:26:34;3.00;99.90
31525;DHT22;18134;52.298;8.888;2023-02-04T06:29:00;3.00;99.90
31525;DHT22;18134;52.298;8.888;2023-02-04T06:31:28;3.00;99.90
31525;DHT22;18134;52.298;8.888;2023-02-04T06:33:56;2.90;99.90
31525;DHT22;18134;52.298;8.888;2023-02-04T06:36:24;2.80;99.90
31525;DHT22;18134;52.298;8.888;2023-02-04T06:38:51;2.80;99.90
31525;DHT22;18134;52.298;8.888;2023-02-04T06:41:19;2.80;99.90
31525;DHT22;18134;52.298;8.888;2023-02-04T06:43:47;2.80;99.90
31525;DHT22;18134;52.298;8.888;2023-02-04T06:46:13;2.80;99.90
31525;DHT22;18134;52.298;8.888;2023-02-04T06:48:38;2.50;99.90
31525;DHT22;18134;52.298;8.888;2023-02-04T06:51:04;2.70;99.90
31525;DHT22;18134;52.298;8.888;2023-02-04T06:53:29;2.80;99.90
31525;DHT22;18134;52.298;8.888;2023-02-04T06:55:57;2.90;99.90
31525;DHT22;18134;52.298;8.888;2023-02-04T06:58:25;2.60;99.90
31525;DHT22;18134;52.298;8.888;2023-02-04T07:00:51;2.70;99.90
31525;DHT22;18134;52.298;8.888;2023-02-04T07:03:16;2.70;99.90
31525;DHT22;18134;52.298;8.888;2023-02-04T07:05:42;2.60;99.90
31525;DHT22;18134;52.298;8.888;2023-02-04T07:08:07;2.50;99.90
31525;DHT22;18134;52.298;8.888;2023-02-04T07:10:33;2.40;99.90
31525;DHT22;18134;52.298;8.888;2023-02-04T07:12:58;2.30;99.90
31525;DHT22;18134;52.298;8.888;2023-02-04T07:15:24;2.30;99.90
31525;DHT22;18134;52.298;8.888;2023-02-04T07:17:49;2.30;99.90
31525;DHT22;18134;52.298;8.888;2023-02-04T07:20:17;2.20;99.90
31525;DHT22;18134;52.298;8.888;2023-02-04T07:22:43;2.10;99.90
31525;DHT22;18134;52.298;8.888;2023-02-04T07:25:08;2.20;99.90
31525;DHT22;18134;52.298;8.888;2023-02-04T07:27:34;2.10;99.90
31525;DHT22;18134;52.298;8.888;2023-02-04T07:30:00;1.80;99.90
31525;DHT22;18134;52.298;8.888;2023-02-04T07:32:28;1.70;99.90
31525;DHT22;18134;52.298;8.888;2023-02-04T07:34:57;1.50;99.90
31525;DHT22;18134;52.298;8.888;2023-02-04T07:37:24;1.50;99.90
31525;DHT22;18134;52.298;8.888;2023-02-04T07:39:50;1.50;99.90
31525;DHT22;18134;52.298;8.888;2023-02-04T07:42:15;0.90;99.90
31525;DHT22;18134;52.298;8.888;2023-02-04T07:44:41;1.40;99.90
31525;DHT22;18134;52.298;8.888;2023-02-04T07:47:07;1.40;99.90
31525;DHT22;18134;52.298;8.888;2023-02-04T07:49:32;1.70;99.90
31525;DHT22;18134;52.298;8.888;2023-02-04T07:51:58;1.40;99.90
31525;DHT22;18134;52.298;8.888;2023-02-04T07:54:26;1.40;99.90
31525;DHT22;18134;52.298;8.888;2023-02-04T07:56:51;1.60;99.90
31525;DHT22;18134;52.298;8.888;2023-02-04T07:59:17;1.70;99.90
31525;DHT22;18134;52.298;8.888;2023-02-04T08:01:43;1.80;99.90
31525;DHT22;18134;52.298;8.888;2023-02-04T08:04:08;2.00;99.90
31525;DHT22;18134;52.298;8.888;2023-02-04T08:06:36;2.20;99.90
31525;DHT22;18134;52.298;8.888;2023-02-04T08:09:02;2.20;99.90
31525;DHT22;18134;52.298;8.888;2023-02-04T08:11:29;3.10;99.90
31525;DHT22;18134;52.298;8.888;2023-02-04T08:13:55;2.50;99.90
31525;DHT22;18134;52.298;8.888;2023-02-04T08:16:20;2.60;99.90
31525;DHT22;18134;52.298;8.888;2023-02-04T08:18:46;2.70;99.90
31525;DHT22;18134;52.298;8.888;2023-02-04T08:21:11;2.70;99.90
31525;DHT22;18134;52.298;8.888;2023-02-04T08:23:37;2.80;99.90
31525;DHT22;18134;52.298;8.888;2023-02-04T08:26:09;2.80;99.90
31525;DHT22;18134;52.298;8.888;2023-02-04T08:28:35;2.80;99.90
31525;DHT22;18134;52.298;8.888;2023-02-04T08:31:04;2.90;99.90
31525;DHT22;18134;52.298;8.888;2023-02-04T08:33:36;2.90;99.90
31525;DHT22;18134;52.298;8.888;2023-02-04T08:36:02;3.00;99.90
31525;DHT22;18134;52.298;8.888;2023-02-04T08:38:30;3.10;99.90
31525;DHT22;18134;52.298;8.888;2023-02-04T08:40:56;3.30;99.90
31525;DHT22;18134;52.298;8.888;2023-02-04T08:43:21;3.40;99.90
31525;DHT22;18134;52.298;8.888;2023-02-04T08:45:47;3.50;99.90
31525;DHT22;18134;52.298;8.888;2023-02-04T08:48:12;3.60;99.90
31525;DHT22;18134;52.298;8.888;2023-02-04T08:50:38;3.70;99.90
31525;DHT22;18134;52.298;8.888;2023-02-04T08:53:03;3.70;99.90
31525;DHT22;18134;52.298;8.888;2023-02-04T08:55:29;3.90;99.90
31525;DHT22;18134;52.298;8.888;2023-02-04T08:57:57;4.00;99.90
31525;DHT22;18134;52.298;8.888;2023-02-04T09:00:23;4.20;99.90
31525;DHT22;18134;52.298;8.888;2023-02-04T09:02:49;4.30;99.90
31525;DHT22;18134;52.298;8.888;2023-02-04T09:05:17;4.50;99.90
31525;DHT22;18134;52.298;8.888;2023-02-04T09:07:42;4.40;99.90
31525;DHT22;18134;52.298;8.888;2023-02-04T09:10:08;4.40;99.90
31525;DHT22;18134;52.298;8.888;2023-02-04T09:12:34;4.40;99.90
31525;DHT22;18134;52.298;8.888;2023-02-04T09:14:59;4.40;99.90
31525;DHT22;18134;52.298;8.888;2023-02-04T09:17:25;4.50;99.90
31525;DHT22;18134;52.298;8.888;2023-02-04T09:19:50;5.70;99.90
31525;DHT22;18134;52.298;8.888;2023-02-04T09:22:16;4.60;99.90
31525;DHT22;18134;52.298;8.888;2023-02-04T09:24:41;4.80;99.90
31525;DHT22;18134;52.298;8.888;2023-02-04T09:27:07;4.80;99.90
31525;DHT22;18134;52.298;8.888;2023-02-04T09:29:32;4.90;99.90
31525;DHT22;18134;52.298;8.888;2023-02-04T09:31:58;4.90;99.90
31525;DHT22;18134;52.298;8.888;2023-02-04T09:34:24;4.90;99.90
31525;DHT22;18134;52.298;8.888;2023-02-04T09:36:49;4.90;99.90
31525;DHT22;18134;52.298;8.888;2023-02-04T09:39:15;4.90;99.90
31525;DHT22;18134;52.298;8.888;2023-02-04T09:41:40;5.00;99.90
31525;DHT22;18134;52.298;8.888;2023-02-04T09:44:08;5.00;99.90
31525;DHT22;18134;52.298;8.888;2023-02-04T09:46:37;5.10;99.90
31525;DHT22;18134;52.298;8.888;2023-02-04T09:49:07;5.10;99.90
31525;DHT22;18134;52.298;8.888;2023-02-04T09:51:34;5.20;99.90
31525;DHT22;18134;52.298;8.888;2023-02-04T09:54:13;5.40;99.90
31525;DHT22;18134;52.298;8.888;2023-02-04T09:56:42;5.40;99.90
31525;DHT22;18134;52.298;8.888;2023-02-04T09:59:15;5.80;99.90
31525;DHT22;18134;52.298;8.888;2023-02-04T10:01:45;5.20;99.90
31525;DHT22;18134;52.298;8.888;2023-02-04T10:04:12;5.10;99.90
31525;DHT22;18134;52.298;8.888;2023-02-04T10:06:39;5.00;99.90
31525;DHT22;18134;52.298;8.888;2023-02-04T10:09:05;5.40;99.90
31525;DHT22;18134;52.298;8.888;2023-02-04T10:11:31;5.10;99.90
31525;DHT22;18134;52.298;8.888;2023-02-04T10:13:59;5.10;99.90
31525;DHT22;18134;52.298;8.888;2023-02-04T10:16:25;5.10;99.90
31525;DHT22;18134;52.298;8.888;2023-02-04T10:19:13;5.10;99.90
31525;DHT22;18134;52.298;8.888;2023-02-04T10:21:42;5.20;99.90
31525;DHT22;18134;52.298;8.888;2023-02-04T10:24:18;5.30;99.90
31525;DHT22;18134;52.298;8.888;2023-02-04T10:26:44;5.50;99.90
31525;DHT22;18134;52.298;8.888;2023-02-04T10:29:14;5.60;99.90
31525;DHT22;18134;52.298;8.888;2023-02-04T10:31:40;5.70;99.90
31525;DHT22;18134;52.298;8.888;2023-02-04T10:36:34;5.70;99.90
31525;DHT22;18134;52.298;8.888;2023-02-04T10:39:00;5.60;99.90
31525;DHT22;18134;52.298;8.888;2023-02-04T10:41:26;5.70;99.90
31525;DHT22;18134;52.298;8.888;2023-02-04T10:44:05;5.80;99.90
31525;DHT22;18134;52.298;8.888;2023-02-04T10:46:31;5.80;99.90
31525;DHT22;18134;52.298;8.888;2023-02-04T10:48:57;5.90;99.90
31525;DHT22;18134;52.298;8.888;2023-02-04T10:51:23;5.90;99.90
31525;DHT22;18134;52.298;8.888;2023-02-04T10:53:48;6.00;99.90
31525;DHT22;18134;52.298;8.888;2023-02-04T10:56:32;5.90;99.90
31525;DHT22;18134;52.298;8.888;2023-02-04T10:58:58;6.10;99.90
31525;DHT22;18134;52.298;8.888;2023-02-04T11:01:23;6.50;99.90
31525;DHT22;18134;52.298;8.888;2023-02-04T11:03:50;6.40;99.90
31525;DHT22;18134;52.298;8.888;2023-02-04T11:06:19;6.30;99.90
31525;DHT22;18134;52.298;8.888;2023-02-04T11:08:45;6.40;99.90
31525;DHT22;18134;52.298;8.888;2023-02-04T11:18:44;7.30;99.90
31525;DHT22;18134;52.298;8.888;2023-02-04T11:21:53;7.50;99.90
31525;DHT22;18134;52.298;8.888;2023-02-04T11:26:33;8.80;99.90
31525;DHT22;18134;52.298;8.888;2023-02-04T11:34:02;7.40;99.90
31525;DHT22;18134;52.298;8.888;2023-02-04T11:36:31;7.40;99.90
31525;DHT22;18134;52.298;8.888;2023-02-04T11:39:05;7.20;99.90
31525;DHT22;18134;52.298;8.888;2023-02-04T11:41:31;7.20;99.90
31525;DHT22;18134;52.298;8.888;2023-02-04T11:43:57;7.10;99.90
31525;DHT22;18134;52.298;8.888;2023-02-04T11:46:25;7.30;99.90
31525;DHT22;18134;52.298;8.888;2023-02-04T11:48:55;7.30;99.90
31525;DHT22;18134;52.298;8.888;2023-02-04T11:51:22;7.40;99.90
31525;DHT22;18134;52.298;8.888;2023-02-04T11:53:50;7.40;99.90
31525;DHT22;18134;52.298;8.888;2023-02-04T11:56:17;7.60;99.90
31525;DHT22;18134;52.298;8.888;2023-02-04T11:58:43;7.70;99.90
31525;DHT22;18134;52.298;8.888;2023-02-04T12:01:23;7.60;99.90
31525;DHT22;18134;52.298;8.888;2023-02-04T12:03:50;7.50;99.90
31525;DHT22;18134;52.298;8.888;2023-02-04T12:06:21;7.80;99.90
31525;DHT22;18134;52.298;8.888;2023-02-04T12:08:46;7.60;99.90
31525;DHT22;18134;52.298;8.888;2023-02-04T12:11:23;7.70;99.90
31525;DHT22;18134;52.298;8.888;2023-02-04T12:13:53;7.70;99.90
31525;DHT22;18134;52.298;8.888;2023-02-04T12:16:19;7.80;99.90
31525;DHT22;18134;52.298;8.888;2023-02-04T12:18:45;7.70;99.90
31525;DHT22;18134;52.298;8.888;2023-02-04T12:21:11;7.60;99.90
31525;DHT22;18134;52.298;8.888;2023-02-04T12:23:38;7.90;99.90
31525;DHT22;18134;52.298;8.888;2023-02-04T12:26:04;7.90;99.90
31525;DHT22;18134;52.298;8.888;2023-02-04T12:28:30;7.60;99.90
31525;DHT22;18134;52.298;8.888;2023-02-04T12:30:55;7.90;99.90
31525;DHT22;18134;52.298;8.888;2023-02-04T12:33:21;7.80;99.90
31525;DHT22;18134;52.298;8.888;2023-02-04T12:35:47;7.80;99.90
31525;DHT22;18134;52.298;8.888;2023-02-04T12:38:13;8.00;99.90
31525;DHT22;18134;52.298;8.888;2023-02-04T12:40:39;7.70;99.90
31525;DHT22;18134;52.298;8.888;2023-02-04T12:43:04;7.90;99.90
31525;DHT22;18134;52.298;8.888;2023-02-04T12:45:30;7.90;99.90
31525;DHT22;18134;52.298;8.888;2023-02-04T12:47:58;8.10;99.90
31525;DHT22;18134;52.298;8.888;2023-02-04T12:50:24;8.20;99.90
31525;DHT22;18134;52.298;8.888;2023-02-04T12:52:51;8.10;99.90
31525;DHT22;18134;52.298;8.888;2023-02-04T12:55:17;8.20;99.90
31525;DHT22;18134;52.298;8.888;2023-02-04T12:57:45;7.90;99.90
31525;DHT22;18134;52.298;8.888;2023-02-04T13:00:11;8.00;99.90
31525;DHT22;18134;52.298;8.888;2023-02-04T13:02:37;8.20;99.90
31525;DHT22;18134;52.298;8.888;2023-02-04T13:05:02;7.90;99.90
31525;DHT22;18134;52.298;8.888;2023-02-04T13:07:28;7.80;99.90
31525;DHT22;18134;52.298;8.888;2023-02-04T13:09:54;7.90;99.90
31525;DHT22;18134;52.298;8.888;2023-02-04T13:12:19;7.70;99.90
31525;DHT22;18134;52.298;8.888;2023-02-04T13:14:45;7.70;99.90
31525;DHT22;18134;52.298;8.888;2023-02-04T13:17:11;7.80;99.90
31525;DHT22;18134;52.298;8.888;2023-02-04T13:19:36;7.90;99.90
31525;DHT22;18134;52.298;8.888;2023-02-04T13:22:04;8.00;99.90
31525;DHT22;18134;52.298;8.888;2023-02-04T13:24:30;8.00;99.90
31525;DHT22;18134;52.298;8.888;2023-02-04T13:26:55;8.20;99.90
31525;DHT22;18134;52.298;8.888;2023-02-04T13:29:21;8.00;99.90
31525;DHT22;18134;52.298;8.888;2023-02-04T13:31:47;8.00;99.90
31525;DHT22;18134;52.298;8.888;2023-02-04T13:34:13;8.00;99.90
31525;DHT22;18134;52.298;8.888;2023-02-04T13:36:41;7.90;99.90
31525;DHT22;18134;52.298;8.888;2023-02-04T13:39:08;7.90;99.90
31525;DHT22;18134;52.298;8.888;2023-02-04T13:41:34;7.90;99.90
31525;DHT22;18134;52.298;8.888;2023-02-04T13:44:00;8.00;99.90
31525;DHT22;18134;52.298;8.888;2023-02-04T13:46:26;7.90;99.90
31525;DHT22;18134;52.298;8.888;2023-02-04T13:48:52;8.00;99.90
31525;DHT22;18134;52.298;8.888;2023-02-04T13:51:17;8.10;99.90
31525;DHT22;18134;52.298;8.888;2023-02-04T13:53:43;8.00;99.90
31525;DHT22;18134;52.298;8.888;2023-02-04T13:56:08;7.90;99.90
31525;DHT22;18134;52.298;8.888;2023-02-04T13:58:34;8.00;99.90
31525;DHT22;18134;52.298;8.888;2023-02-04T14:01:00;7.70;99.90
31525;DHT22;18134;52.298;8.888;2023-02-04T14:03:26;8.10;99.90
31525;DHT22;18134;52.298;8.888;2023-02-04T14:05:52;8.10;99.90
31525;DHT22;18134;52.298;8.888;2023-02-04T14:08:36;8.30;99.90
31525;DHT22;18134;52.298;8.888;2023-02-04T14:11:01;8.40;99.90
31525;DHT22;18134;52.298;8.888;2023-02-04T14:13:27;8.30;99.90
31525;DHT22;18134;52.298;8.888;2023-02-04T14:15:53;8.20;99.90
31525;DHT22;18134;52.298;8.888;2023-02-04T14:18:18;8.60;99.90
31525;DHT22;18134;52.298;8.888;2023-02-04T14:20:45;8.20;99.90
31525;DHT22;18134;52.298;8.888;2023-02-04T14:23:10;8.20;99.90
31525;DHT22;18134;52.298;8.888;2023-02-04T14:25:36;8.30;99.90
31525;DHT22;18134;52.298;8.888;2023-02-04T14:28:02;8.50;99.90
31525;DHT22;18134;52.298;8.888;2023-02-04T14:30:28;7.80;99.90
31525;DHT22;18134;52.298;8.888;2023-02-04T14:32:57;7.60;99.90
31525;DHT22;18134;52.298;8.888;2023-02-04T14:35:23;7.40;99.90
31525;DHT22;18134;52.298;8.888;2023-02-04T14:37:48;7.30;99.90
31525;DHT22;18134;52.298;8.888;2023-02-04T14:40:14;7.30;99.90
31525;DHT22;18134;52.298;8.888;2023-02-04T14:42:40;7.70;99.90
31525;DHT22;18134;52.298;8.888;2023-02-04T14:45:09;7.60;99.90
31525;DHT22;18134;52.298;8.888;2023-02-04T14:47:38;7.50;99.90
31525;DHT22;18134;52.298;8.888;2023-02-04T14:50:08;7.60;99.90
31525;DHT22;18134;52.298;8.888;2023-02-04T14:52:34;7.20;99.90
31525;DHT22;18134;52.298;8.888;2023-02-04T14:54:59;7.60;99.90
31525;DHT22;18134;52.298;8.888;2023-02-04T14:57:25;7.60;99.90
31525;DHT22;18134;52.298;8.888;2023-02-04T14:59:51;6.60;99.90
31525;DHT22;18134;52.298;8.888;2023-02-04T15:02:17;7.90;99.90
31525;DHT22;18134;52.298;8.888;2023-02-04T15:04:44;8.30;99.90
31525;DHT22;18134;52.298;8.888;2023-02-04T15:07:10;7.50;99.90
31525;DHT22;18134;52.298;8.888;2023-02-04T15:09:35;7.40;99.90
31525;DHT22;18134;52.298;8.888;2023-02-04T15:12:01;7.30;99.90
31525;DHT22;18134;52.298;8.888;2023-02-04T15:14:27;7.20;99.90
31525;DHT22;18134;52.298;8.888;2023-02-04T15:16:52;7.20;99.90
31525;DHT22;18134;52.298;8.888;2023-02-04T15:19:18;7.60;99.90
31525;DHT22;18134;52.298;8.888;2023-02-04T15:21:44;7.40;99.90
31525;DHT22;18134;52.298;8.888;2023-02-04T15:24:10;7.50;99.90
31525;DHT22;18134;52.298;8.888;2023-02-04T15:26:36;7.50;99.90
31525;DHT22;18134;52.298;8.888;2023-02-04T15:29:01;7.40;99.90
31525;DHT22;18134;52.298;8.888;2023-02-04T15:31:30;7.30;99.90
31525;DHT22;18134;52.298;8.888;2023-02-04T15:33:56;7.10;99.90
31525;DHT22;18134;52.298;8.888;2023-02-04T15:36:21;6.90;99.90
31525;DHT22;18134;52.298;8.888;2023-02-04T15:38:47;6.80;99.90
31525;DHT22;18134;52.298;8.888;2023-02-04T15:41:12;6.60;99.90
31525;DHT22;18134;52.298;8.888;2023-02-04T15:43:38;6.60;99.90
31525;DHT22;18134;52.298;8.888;2023-02-04T15:46:03;6.50;99.90
31525;DHT22;18134;52.298;8.888;2023-02-04T15:48:29;6.30;99.90
31525;DHT22;18134;52.298;8.888;2023-02-04T15:50:55;6.20;99.90
31525;DHT22;18134;52.298;8.888;2023-02-04T15:53:20;6.10;99.90
31525;DHT22;18134;52.298;8.888;2023-02-04T15:55:46;6.00;99.90
31525;DHT22;18134;52.298;8.888;2023-02-04T15:58:12;5.80;99.90
31525;DHT22;18134;52.298;8.888;2023-02-04T16:00:37;6.20;99.90
31525;DHT22;18134;52.298;8.888;2023-02-04T16:05:48;5.50;99.90